sensor_id;sensor_type;location;lat;lon;timestamp;temperature;humidity
20845;DHT22;10583;49.084;8.646;2023-07-24T00:01:07;18.10;99.90
20845;DHT22;10583;49.084;8.646;2023-07-24T00:03:36;18.00;99.90
20845;DHT22;10583;49.084;8.646;2023-07-24T00:06:04;18.00;99.90
20845;DHT22;10583;49.084;8.646;2023-07-24T00:08:31;17.90;99.90
20845;DHT22;10583;49.084;8.646;2023-07-24T00:10:59;17.90;99.90
20845;DHT22;10583;49.084;8.646;2023-07-24T00:13:28;17.90;99.90
20845;DHT22;10583;49.084;8.646;2023-07-24T00:15:56;17.90;99.90
20845;DHT22;10583;49.084;8.646;2023-07-24T00:18:23;17.90;99.90
20845;DHT22;10583;49.084;8.646;2023-07-24T00:20:50;17.90;99.90
20845;DHT22;10583;49.084;8.646;2023-07-24T00:23:17;17.80;99.90
20845;DHT22;10583;49.084;8.646;2023-07-24T00:25:44;17.80;99.90
20845;DHT22;10583;49.084;8.646;2023-07-24T00:28:12;17.70;99.90
20845;DHT22;10583;49.084;8.646;2023-07-24T00:30:39;17.70;99.90
20845;DHT22;10583;49.084;8.646;2023-07-24T00:33:06;17.60;99.90
20845;DHT22;10583;49.084;8.646;2023-07-24T00:35:33;17.60;99.90
20845;DHT22;10583;49.084;8.646;2023-07-24T00:38:00;17.50;99.90
20845;DHT22;10583;49.084;8.646;2023-07-24T00:40:26;17.50;99.90
20845;DHT22;10583;49.084;8.646;2023-07-24T00:42:53;17.50;99.90
20845;DHT22;10583;49.084;8.646;2023-07-24T00:45:22;17.50;99.90
20845;DHT22;10583;49.084;8.646;2023-07-24T00:47:50;17.40;99.90
20845;DHT22;10583;49.084;8.646;2023-07-24T00:50:19;17.40;99.90
20845;DHT22;10583;49.084;8.646;2023-07-24T00:52:47;17.40;99.90
20845;DHT22;10583;49.084;8.646;2023-07-24T00:55:14;17.50;99.90
20845;DHT22;10583;49.084;8.646;2023-07-24T00:57:43;17.40;99.90
20845;DHT22;10583;49.084;8.646;2023-07-24T01:00:11;17.40;99.90
20845;DHT22;10583;49.084;8.646;2023-07-24T01:02:39;17.40;99.90
20845;DHT22;10583;49.084;8.646;2023-07-24T01:05:08;17.40;99.90
20845;DHT22;10583;49.084;8.646;2023-07-24T01:07:35;17.40;99.90
20845;DHT22;10583;49.084;8.646;2023-07-24T01:10:03;17.40;99.90
20845;DHT22;10583;49.084;8.646;2023-07-24T01:12:35;17.30;99.90
20845;DHT22;10583;49.084;8.646;2023-07-24T01:15:08;17.30;99.90
20845;DHT22;10583;49.084;8.646;2023-07-24T01:17:41;17.30;99.90
20845;DHT22;10583;49.084;8.646;2023-07-24T01:20:11;17.30;99.90
20845;DHT22;10583;49.084;8.646;2023-07-24T01:22:48;17.30;99.90
20845;DHT22;10583;49.084;8.646;2023-07-24T01:25:27;17.20;99.90
20845;DHT22;10583;49.084;8.646;2023-07-24T01:27:59;17.20;99.90
20845;DHT22;10583;49.084;8.646;2023-07-24T01:30:26;17.20;99.90
20845;DHT22;10583;49.084;8.646;2023-07-24T01:32:53;17.20;99.90
20845;DHT22;10583;49.084;8.646;2023-07-24T01:35:20;17.20;99.90
20845;DHT22;10583;49.084;8.646;2023-07-24T01:37:47;17.20;99.90
20845;DHT22;10583;49.084;8.646;2023-07-24T01:40:15;17.20;99.90
20845;DHT22;10583;49.084;8.646;2023-07-24T01:42:42;17.20;99.90
20845;DHT22;10583;49.084;8.646;2023-07-24T01:45:10;17.30;99.90
20845;DHT22;10583;49.084;8.646;2023-07-24T01:47:38;17.30;99.90
20845;DHT22;10583;49.084;8.646;2023-07-24T01:50:06;17.20;99.90
20845;DHT22;10583;49.084;8.646;2023-07-24T01:52:33;17.20;99.90
20845;DHT22;10583;49.084;8.646;2023-07-24T01:55:00;17.20;99.90
20845;DHT22;10583;49.084;8.646;2023-07-24T01:57:26;17.10;99.90
20845;DHT22;10583;49.084;8.646;2023-07-24T01:59:53;17.20;99.90
20845;DHT22;10583;49.084;8.646;2023-07-24T02:02:21;17.20;99.90
20845;DHT22;10583;49.084;8.646;2023-07-24T02:04:48;17.30;99.90
20845;DHT22;10583;49.084;8.646;2023-07-24T02:07:14;17.30;99.90
20845;DHT22;10583;49.084;8.646;2023-07-24T02:09:42;17.30;99.90
20845;DHT22;10583;49.084;8.646;2023-07-24T02:12:09;17.30;99.90
20845;DHT22;10583;49.084;8.646;2023-07-24T02:14:35;17.30;99.90
20845;DHT22;10583;49.084;8.646;2023-07-24T02:17:02;17.30;99.90
20845;DHT22;10583;49.084;8.646;2023-07-24T02:19:30;17.20;99.90
20845;DHT22;10583;49.084;8.646;2023-07-24T02:21:57;17.20;99.90
20845;DHT22;10583;49.084;8.646;2023-07-24T02:24:24;17.20;99.90
20845;DHT22;10583;49.084;8.646;2023-07-24T02:26:50;17.10;99.90
20845;DHT22;10583;49.084;8.646;2023-07-24T02:29:17;17.10;99.90
20845;DHT22;10583;49.084;8.646;2023-07-24T02:31:44;17.10;99.90
20845;DHT22;10583;49.084;8.646;2023-07-24T02:34:11;17.00;99.90
20845;DHT22;10583;49.084;8.646;2023-07-24T02:36:39;17.00;99.90
20845;DHT22;10583;49.084;8.646;2023-07-24T02:39:06;17.00;99.90
20845;DHT22;10583;49.084;8.646;2023-07-24T02:41:33;17.10;99.90
20845;DHT22;10583;49.084;8.646;2023-07-24T02:44:00;17.10;99.90
20845;DHT22;10583;49.084;8.646;2023-07-24T02:46:26;17.20;99.90
20845;DHT22;10583;49.084;8.646;2023-07-24T02:48:54;17.10;99.90
20845;DHT22;10583;49.084;8.646;2023-07-24T02:51:21;17.20;99.90
20845;DHT22;10583;49.084;8.646;2023-07-24T02:53:49;17.30;99.90
20845;DHT22;10583;49.084;8.646;2023-07-24T02:56:16;17.30;99.90
20845;DHT22;10583;49.084;8.646;2023-07-24T02:58:42;17.40;99.90
20845;DHT22;10583;49.084;8.646;2023-07-24T03:01:09;17.40;99.90
20845;DHT22;10583;49.084;8.646;2023-07-24T03:03:37;17.30;99.90
20845;DHT22;10583;49.084;8.646;2023-07-24T03:06:04;17.30;99.90
20845;DHT22;10583;49.084;8.646;2023-07-24T03:08:31;17.30;99.90
20845;DHT22;10583;49.084;8.646;2023-07-24T03:10:59;17.30;99.90
20845;DHT22;10583;49.084;8.646;2023-07-24T03:13:27;17.30;99.90
20845;DHT22;10583;49.084;8.646;2023-07-24T03:15:56;17.30;99.90
20845;DHT22;10583;49.084;8.646;2023-07-24T03:18:23;17.20;99.90
20845;DHT22;10583;49.084;8.646;2023-07-24T03:20:50;17.20;99.90
20845;DHT22;10583;49.084;8.646;2023-07-24T03:23:18;17.10;99.90
20845;DHT22;10583;49.084;8.646;2023-07-24T03:25:45;17.00;99.90
20845;DHT22;10583;49.084;8.646;2023-07-24T03:28:13;16.90;99.90
20845;DHT22;10583;49.084;8.646;2023-07-24T03:30:40;16.90;99.90
20845;DHT22;10583;49.084;8.646;2023-07-24T03:33:07;16.80;99.90
20845;DHT22;10583;49.084;8.646;2023-07-24T03:35:34;16.90;99.90
20845;DHT22;10583;49.084;8.646;2023-07-24T03:38:00;16.90;99.90
20845;DHT22;10583;49.084;8.646;2023-07-24T03:40:27;16.80;99.90
20845;DHT22;10583;49.084;8.646;2023-07-24T03:42:54;16.90;99.90
20845;DHT22;10583;49.084;8.646;2023-07-24T03:45:22;16.80;99.90
20845;DHT22;10583;49.084;8.646;2023-07-24T03:47:48;16.80;99.90
20845;DHT22;10583;49.084;8.646;2023-07-24T03:50:16;16.90;99.90
20845;DHT22;10583;49.084;8.646;2023-07-24T03:52:43;17.00;99.90
20845;DHT22;10583;49.084;8.646;2023-07-24T03:55:10;17.10;99.90
20845;DHT22;10583;49.084;8.646;2023-07-24T03:57:36;17.20;99.90
20845;DHT22;10583;49.084;8.646;2023-07-24T04:00:04;17.20;99.90
20845;DHT22;10583;49.084;8.646;2023-07-24T04:02:32;17.30;99.90
20845;DHT22;10583;49.084;8.646;2023-07-24T04:04:59;17.30;99.90
20845;DHT22;10583;49.084;8.646;2023-07-24T04:07:25;17.30;99.90
20845;DHT22;10583;49.084;8.646;2023-07-24T04:09:52;17.30;99.90
20845;DHT22;10583;49.084;8.646;2023-07-24T04:12:19;17.40;99.90
20845;DHT22;10583;49.084;8.646;2023-07-24T04:14:46;17.40;99.90
20845;DHT22;10583;49.084;8.646;2023-07-24T04:17:14;17.50;99.90
20845;DHT22;10583;49.084;8.646;2023-07-24T04:19:42;17.50;99.90
20845;DHT22;10583;49.084;8.646;2023-07-24T04:22:10;17.50;99.90
20845;DHT22;10583;49.084;8.646;2023-07-24T04:24:37;17.60;99.90
20845;DHT22;10583;49.084;8.646;2023-07-24T04:27:04;17.60;99.90
20845;DHT22;10583;49.084;8.646;2023-07-24T04:29:30;17.70;99.90
20845;DHT22;10583;49.084;8.646;2023-07-24T04:31:57;17.80;99.90
20845;DHT22;10583;49.084;8.646;2023-07-24T04:34:24;17.80;99.90
20845;DHT22;10583;49.084;8.646;2023-07-24T04:36:52;17.80;99.90
20845;DHT22;10583;49.084;8.646;2023-07-24T04:39:19;17.80;99.90
20845;DHT22;10583;49.084;8.646;2023-07-24T04:41:46;17.90;99.90
20845;DHT22;10583;49.084;8.646;2023-07-24T04:44:13;17.80;99.90
20845;DHT22;10583;49.084;8.646;2023-07-24T04:46:39;17.80;99.90
20845;DHT22;10583;49.084;8.646;2023-07-24T04:49:06;17.90;99.90
20845;DHT22;10583;49.084;8.646;2023-07-24T04:51:33;17.90;99.90
20845;DHT22;10583;49.084;8.646;2023-07-24T04:54:01;18.00;99.90
20845;DHT22;10583;49.084;8.646;2023-07-24T04:56:28;18.00;99.90
20845;DHT22;10583;49.084;8.646;2023-07-24T04:58:54;18.10;99.90
20845;DHT22;10583;49.084;8.646;2023-07-24T05:01:21;18.10;99.90
20845;DHT22;10583;49.084;8.646;2023-07-24T05:03:48;18.20;99.90
20845;DHT22;10583;49.084;8.646;2023-07-24T05:06:14;18.20;99.90
20845;DHT22;10583;49.084;8.646;2023-07-24T05:08:41;18.20;99.90
20845;DHT22;10583;49.084;8.646;2023-07-24T05:11:09;18.20;99.90
20845;DHT22;10583;49.084;8.646;2023-07-24T05:13:36;18.20;99.90
20845;DHT22;10583;49.084;8.646;2023-07-24T05:16:03;18.30;99.90
20845;DHT22;10583;49.084;8.646;2023-07-24T05:18:30;18.30;99.90
20845;DHT22;10583;49.084;8.646;2023-07-24T05:20:56;18.20;99.90
20845;DHT22;10583;49.084;8.646;2023-07-24T05:23:23;18.20;99.90
20845;DHT22;10583;49.084;8.646;2023-07-24T05:25:56;18.10;99.90
20845;DHT22;10583;49.084;8.646;2023-07-24T05:28:25;18.20;99.90
20845;DHT22;10583;49.084;8.646;2023-07-24T05:30:52;18.20;99.90
20845;DHT22;10583;49.084;8.646;2023-07-24T05:33:19;18.30;99.90
20845;DHT22;10583;49.084;8.646;2023-07-24T05:35:45;18.40;99.90
20845;DHT22;10583;49.084;8.646;2023-07-24T05:38:12;18.40;99.90
20845;DHT22;10583;49.084;8.646;2023-07-24T05:40:39;18.30;99.90
20845;DHT22;10583;49.084;8.646;2023-07-24T05:43:05;18.30;99.90
20845;DHT22;10583;49.084;8.646;2023-07-24T05:45:33;18.30;99.90
20845;DHT22;10583;49.084;8.646;2023-07-24T05:48:00;18.40;99.90
20845;DHT22;10583;49.084;8.646;2023-07-24T05:50:27;18.50;99.90
20845;DHT22;10583;49.084;8.646;2023-07-24T05:52:53;18.50;99.90
20845;DHT22;10583;49.084;8.646;2023-07-24T05:55:20;18.60;99.90
20845;DHT22;10583;49.084;8.646;2023-07-24T05:57:47;18.60;99.90
20845;DHT22;10583;49.084;8.646;2023-07-24T06:00:14;18.60;99.90
20845;DHT22;10583;49.084;8.646;2023-07-24T06:02:42;18.70;99.90
20845;DHT22;10583;49.084;8.646;2023-07-24T06:05:09;18.70;99.90
20845;DHT22;10583;49.084;8.646;2023-07-24T06:07:35;18.70;99.90
20845;DHT22;10583;49.084;8.646;2023-07-24T06:10:02;18.70;99.90
20845;DHT22;10583;49.084;8.646;2023-07-24T06:12:29;18.80;99.90
20845;DHT22;10583;49.084;8.646;2023-07-24T06:14:56;18.80;99.90
20845;DHT22;10583;49.084;8.646;2023-07-24T06:17:22;18.80;99.90
20845;DHT22;10583;49.084;8.646;2023-07-24T06:19:51;18.90;99.90
20845;DHT22;10583;49.084;8.646;2023-07-24T06:22:17;18.90;99.90
20845;DHT22;10583;49.084;8.646;2023-07-24T06:24:44;19.00;99.90
20845;DHT22;10583;49.084;8.646;2023-07-24T06:27:10;19.00;99.90
20845;DHT22;10583;49.084;8.646;2023-07-24T06:29:37;19.00;99.90
20845;DHT22;10583;49.084;8.646;2023-07-24T06:32:05;19.00;99.90
20845;DHT22;10583;49.084;8.646;2023-07-24T06:34:32;19.00;99.90
20845;DHT22;10583;49.084;8.646;2023-07-24T06:37:00;19.10;99.90
20845;DHT22;10583;49.084;8.646;2023-07-24T06:39:26;19.20;99.90
20845;DHT22;10583;49.084;8.646;2023-07-24T06:41:54;19.30;99.90
20845;DHT22;10583;49.084;8.646;2023-07-24T06:44:21;19.30;99.90
20845;DHT22;10583;49.084;8.646;2023-07-24T06:46:48;19.40;99.90
20845;DHT22;10583;49.084;8.646;2023-07-24T06:49:15;19.40;99.90
20845;DHT22;10583;49.084;8.646;2023-07-24T06:51:41;19.50;99.90
20845;DHT22;10583;49.084;8.646;2023-07-24T06:54:09;19.60;99.90
20845;DHT22;10583;49.084;8.646;2023-07-24T06:56:36;19.70;99.90
20845;DHT22;10583;49.084;8.646;2023-07-24T06:59:03;19.80;99.90
20845;DHT22;10583;49.084;8.646;2023-07-24T07:01:30;19.90;99.90
20845;DHT22;10583;49.084;8.646;2023-07-24T07:03:56;19.90;99.90
20845;DHT22;10583;49.084;8.646;2023-07-24T07:06:23;20.00;99.90
20845;DHT22;10583;49.084;8.646;2023-07-24T07:08:50;20.30;99.90
20845;DHT22;10583;49.084;8.646;2023-07-24T07:11:18;20.50;99.90
20845;DHT22;10583;49.084;8.646;2023-07-24T07:13:44;20.60;99.90
20845;DHT22;10583;49.084;8.646;2023-07-24T07:16:11;20.60;99.90
20845;DHT22;10583;49.084;8.646;2023-07-24T07:18:37;20.60;99.90
20845;DHT22;10583;49.084;8.646;2023-07-24T07:21:04;20.50;99.90
20845;DHT22;10583;49.084;8.646;2023-07-24T07:23:31;20.40;99.90
20845;DHT22;10583;49.084;8.646;2023-07-24T07:25:57;20.20;99.90
20845;DHT22;10583;49.084;8.646;2023-07-24T07:28:25;20.20;99.90
20845;DHT22;10583;49.084;8.646;2023-07-24T07:30:53;20.10;99.90
20845;DHT22;10583;49.084;8.646;2023-07-24T07:33:20;20.10;99.90
20845;DHT22;10583;49.084;8.646;2023-07-24T07:35:47;20.10;99.90
20845;DHT22;10583;49.084;8.646;2023-07-24T07:38:14;20.10;99.90
20845;DHT22;10583;49.084;8.646;2023-07-24T07:40:41;20.20;99.90
20845;DHT22;10583;49.084;8.646;2023-07-24T07:43:07;20.20;99.90
20845;DHT22;10583;49.084;8.646;2023-07-24T07:45:35;20.40;99.90
20845;DHT22;10583;49.084;8.646;2023-07-24T07:48:02;20.40;99.90
20845;DHT22;10583;49.084;8.646;2023-07-24T07:50:29;20.40;99.90
20845;DHT22;10583;49.084;8.646;2023-07-24T07:52:56;20.40;99.90
20845;DHT22;10583;49.084;8.646;2023-07-24T07:55:22;20.20;99.90
20845;DHT22;10583;49.084;8.646;2023-07-24T07:57:49;20.20;99.90
20845;DHT22;10583;49.084;8.646;2023-07-24T08:00:16;20.20;99.90
20845;DHT22;10583;49.084;8.646;2023-07-24T08:02:44;20.10;99.90
20845;DHT22;10583;49.084;8.646;2023-07-24T08:05:11;19.90;99.90
20845;DHT22;10583;49.084;8.646;2023-07-24T08:07:38;19.80;99.90
20845;DHT22;10583;49.084;8.646;2023-07-24T08:10:05;19.70;99.90
20845;DHT22;10583;49.084;8.646;2023-07-24T08:12:32;19.70;99.90
20845;DHT22;10583;49.084;8.646;2023-07-24T08:14:59;19.90;99.90
20845;DHT22;10583;49.084;8.646;2023-07-24T08:17:26;20.00;99.90
20845;DHT22;10583;49.084;8.646;2023-07-24T08:19:54;19.90;99.90
20845;DHT22;10583;49.084;8.646;2023-07-24T08:22:21;20.00;99.90
20845;DHT22;10583;49.084;8.646;2023-07-24T08:24:48;20.00;99.90
20845;DHT22;10583;49.084;8.646;2023-07-24T08:27:16;20.00;99.90
20845;DHT22;10583;49.084;8.646;2023-07-24T08:29:43;20.10;99.90
20845;DHT22;10583;49.084;8.646;2023-07-24T08:32:10;20.10;99.90
20845;DHT22;10583;49.084;8.646;2023-07-24T08:34:36;20.20;99.90
20845;DHT22;10583;49.084;8.646;2023-07-24T08:37:05;20.20;99.90
20845;DHT22;10583;49.084;8.646;2023-07-24T08:39:32;20.20;99.90
20845;DHT22;10583;49.084;8.646;2023-07-24T08:41:58;20.30;99.90
20845;DHT22;10583;49.084;8.646;2023-07-24T08:44:25;20.30;99.90
20845;DHT22;10583;49.084;8.646;2023-07-24T08:46:53;20.50;99.90
20845;DHT22;10583;49.084;8.646;2023-07-24T08:49:21;20.70;99.90
20845;DHT22;10583;49.084;8.646;2023-07-24T08:51:48;20.90;99.90
20845;DHT22;10583;49.084;8.646;2023-07-24T08:54:17;21.00;99.90
20845;DHT22;10583;49.084;8.646;2023-07-24T08:56:45;21.10;99.90
20845;DHT22;10583;49.084;8.646;2023-07-24T08:59:13;21.30;99.90
20845;DHT22;10583;49.084;8.646;2023-07-24T09:01:40;21.50;99.90
20845;DHT22;10583;49.084;8.646;2023-07-24T09:04:07;21.80;99.90
20845;DHT22;10583;49.084;8.646;2023-07-24T09:06:33;21.90;99.90
20845;DHT22;10583;49.084;8.646;2023-07-24T09:09:01;22.00;99.90
20845;DHT22;10583;49.084;8.646;2023-07-24T09:11:29;22.20;99.90
20845;DHT22;10583;49.084;8.646;2023-07-24T09:13:56;22.40;99.90
20845;DHT22;10583;49.084;8.646;2023-07-24T09:16:23;22.60;99.90
20845;DHT22;10583;49.084;8.646;2023-07-24T09:18:52;22.80;99.90
20845;DHT22;10583;49.084;8.646;2023-07-24T09:21:28;23.10;99.90
20845;DHT22;10583;49.084;8.646;2023-07-24T09:23:55;23.20;99.90
20845;DHT22;10583;49.084;8.646;2023-07-24T09:26:22;23.20;99.90
20845;DHT22;10583;49.084;8.646;2023-07-24T09:28:53;23.10;99.90
20845;DHT22;10583;49.084;8.646;2023-07-24T09:31:20;23.00;99.90
20845;DHT22;10583;49.084;8.646;2023-07-24T09:33:47;22.80;99.90
20845;DHT22;10583;49.084;8.646;2023-07-24T09:36:13;22.70;99.90
20845;DHT22;10583;49.084;8.646;2023-07-24T09:38:41;22.70;99.90
20845;DHT22;10583;49.084;8.646;2023-07-24T09:41:07;22.70;99.90
20845;DHT22;10583;49.084;8.646;2023-07-24T09:43:34;22.50;99.90
20845;DHT22;10583;49.084;8.646;2023-07-24T09:46:04;22.50;99.90
20845;DHT22;10583;49.084;8.646;2023-07-24T09:48:32;22.50;99.90
20845;DHT22;10583;49.084;8.646;2023-07-24T09:51:00;22.50;99.90
20845;DHT22;10583;49.084;8.646;2023-07-24T09:53:32;22.40;99.90
20845;DHT22;10583;49.084;8.646;2023-07-24T09:56:02;22.30;99.90
20845;DHT22;10583;49.084;8.646;2023-07-24T09:58:29;22.20;99.90
20845;DHT22;10583;49.084;8.646;2023-07-24T10:00:56;22.20;99.90
20845;DHT22;10583;49.084;8.646;2023-07-24T10:03:25;22.10;99.90
20845;DHT22;10583;49.084;8.646;2023-07-24T10:05:52;22.00;99.90
20845;DHT22;10583;49.084;8.646;2023-07-24T10:08:20;21.90;99.90
20845;DHT22;10583;49.084;8.646;2023-07-24T10:10:46;21.90;99.90
20845;DHT22;10583;49.084;8.646;2023-07-24T10:13:17;21.80;99.90
20845;DHT22;10583;49.084;8.646;2023-07-24T10:15:46;21.60;99.90
20845;DHT22;10583;49.084;8.646;2023-07-24T10:18:14;21.60;99.90
20845;DHT22;10583;49.084;8.646;2023-07-24T10:20:42;21.60;99.90
20845;DHT22;10583;49.084;8.646;2023-07-24T10:23:11;21.60;99.90
20845;DHT22;10583;49.084;8.646;2023-07-24T10:25:44;21.60;99.90
20845;DHT22;10583;49.084;8.646;2023-07-24T10:28:12;21.50;99.90
20845;DHT22;10583;49.084;8.646;2023-07-24T10:30:41;21.50;99.90
20845;DHT22;10583;49.084;8.646;2023-07-24T10:33:10;21.40;99.90
20845;DHT22;10583;49.084;8.646;2023-07-24T10:35:43;21.30;99.90
20845;DHT22;10583;49.084;8.646;2023-07-24T10:38:10;21.20;99.90
20845;DHT22;10583;49.084;8.646;2023-07-24T10:40:37;21.10;99.90
20845;DHT22;10583;49.084;8.646;2023-07-24T10:43:07;21.10;99.90
20845;DHT22;10583;49.084;8.646;2023-07-24T10:45:47;21.10;99.90
20845;DHT22;10583;49.084;8.646;2023-07-24T10:48:15;21.10;99.90
20845;DHT22;10583;49.084;8.646;2023-07-24T10:50:44;21.10;99.90
20845;DHT22;10583;49.084;8.646;2023-07-24T10:53:14;21.10;99.90
20845;DHT22;10583;49.084;8.646;2023-07-24T10:55:42;21.00;99.90
20845;DHT22;10583;49.084;8.646;2023-07-24T10:58:08;21.00;99.90
20845;DHT22;10583;49.084;8.646;2023-07-24T11:00:36;21.10;99.90
20845;DHT22;10583;49.084;8.646;2023-07-24T11:03:02;21.10;99.90
20845;DHT22;10583;49.084;8.646;2023-07-24T11:05:29;21.20;99.90
20845;DHT22;10583;49.084;8.646;2023-07-24T11:07:57;21.20;99.90
20845;DHT22;10583;49.084;8.646;2023-07-24T11:10:24;21.30;99.90
20845;DHT22;10583;49.084;8.646;2023-07-24T11:12:51;21.40;99.90
20845;DHT22;10583;49.084;8.646;2023-07-24T11:15:24;21.60;99.90
20845;DHT22;10583;49.084;8.646;2023-07-24T11:17:52;21.70;99.90
20845;DHT22;10583;49.084;8.646;2023-07-24T11:20:19;21.70;99.90
20845;DHT22;10583;49.084;8.646;2023-07-24T11:22:46;21.80;99.90
20845;DHT22;10583;49.084;8.646;2023-07-24T11:25:14;21.70;99.90
20845;DHT22;10583;49.084;8.646;2023-07-24T11:27:42;21.70;99.90
20845;DHT22;10583;49.084;8.646;2023-07-24T11:30:10;21.80;99.90
20845;DHT22;10583;49.084;8.646;2023-07-24T11:32:38;21.80;99.90
20845;DHT22;10583;49.084;8.646;2023-07-24T11:35:06;21.90;99.90
20845;DHT22;10583;49.084;8.646;2023-07-24T11:37:34;22.10;99.90
20845;DHT22;10583;49.084;8.646;2023-07-24T11:40:03;22.40;99.90
20845;DHT22;10583;49.084;8.646;2023-07-24T11:42:38;22.60;99.90
20845;DHT22;10583;49.084;8.646;2023-07-24T11:45:06;23.00;99.90
20845;DHT22;10583;49.084;8.646;2023-07-24T11:47:41;23.30;99.90
20845;DHT22;10583;49.084;8.646;2023-07-24T11:50:09;23.40;99.90
20845;DHT22;10583;49.084;8.646;2023-07-24T11:52:40;23.40;99.90
20845;DHT22;10583;49.084;8.646;2023-07-24T11:55:09;23.40;99.90
20845;DHT22;10583;49.084;8.646;2023-07-24T11:57:37;23.30;99.90
20845;DHT22;10583;49.084;8.646;2023-07-24T12:00:05;23.20;99.90
20845;DHT22;10583;49.084;8.646;2023-07-24T12:02:32;23.20;99.90
20845;DHT22;10583;49.084;8.646;2023-07-24T12:05:00;23.40;99.90
20845;DHT22;10583;49.084;8.646;2023-07-24T12:07:32;23.70;99.90
20845;DHT22;10583;49.084;8.646;2023-07-24T12:10:00;23.80;99.90
20845;DHT22;10583;49.084;8.646;2023-07-24T12:12:38;24.00;99.90
20845;DHT22;10583;49.084;8.646;2023-07-24T12:15:06;24.00;99.90
20845;DHT22;10583;49.084;8.646;2023-07-24T12:17:33;24.00;99.90
20845;DHT22;10583;49.084;8.646;2023-07-24T12:19:59;23.80;99.90
20845;DHT22;10583;49.084;8.646;2023-07-24T12:22:27;23.80;99.90
20845;DHT22;10583;49.084;8.646;2023-07-24T12:24:54;23.80;99.90
20845;DHT22;10583;49.084;8.646;2023-07-24T12:27:21;23.90;99.90
20845;DHT22;10583;49.084;8.646;2023-07-24T12:29:49;24.10;99.90
20845;DHT22;10583;49.084;8.646;2023-07-24T12:32:15;24.50;99.90
20845;DHT22;10583;49.084;8.646;2023-07-24T12:34:43;24.80;99.90
20845;DHT22;10583;49.084;8.646;2023-07-24T12:37:10;24.80;99.90
20845;DHT22;10583;49.084;8.646;2023-07-24T12:39:37;24.50;99.90
20845;DHT22;10583;49.084;8.646;2023-07-24T12:42:04;24.30;99.90
20845;DHT22;10583;49.084;8.646;2023-07-24T12:44:31;24.40;99.90
20845;DHT22;10583;49.084;8.646;2023-07-24T12:46:59;24.50;99.90
20845;DHT22;10583;49.084;8.646;2023-07-24T12:49:26;24.80;99.90
20845;DHT22;10583;49.084;8.646;2023-07-24T12:51:53;24.90;99.90
20845;DHT22;10583;49.084;8.646;2023-07-24T12:54:19;24.80;99.90
20845;DHT22;10583;49.084;8.646;2023-07-24T12:56:48;25.10;99.90
20845;DHT22;10583;49.084;8.646;2023-07-24T12:59:15;25.10;99.90
20845;DHT22;10583;49.084;8.646;2023-07-24T13:01:41;24.70;99.90
20845;DHT22;10583;49.084;8.646;2023-07-24T13:04:09;24.40;99.90
20845;DHT22;10583;49.084;8.646;2023-07-24T13:06:36;24.00;99.90
20845;DHT22;10583;49.084;8.646;2023-07-24T13:09:03;24.10;99.90
20845;DHT22;10583;49.084;8.646;2023-07-24T13:11:30;24.00;99.90
20845;DHT22;10583;49.084;8.646;2023-07-24T13:13:57;24.00;99.90
20845;DHT22;10583;49.084;8.646;2023-07-24T13:16:24;24.00;99.90
20845;DHT22;10583;49.084;8.646;2023-07-24T13:18:50;24.10;99.90
20845;DHT22;10583;49.084;8.646;2023-07-24T13:21:18;24.00;99.90
20845;DHT22;10583;49.084;8.646;2023-07-24T13:23:45;24.00;99.90
20845;DHT22;10583;49.084;8.646;2023-07-24T13:26:14;24.10;99.90
20845;DHT22;10583;49.084;8.646;2023-07-24T13:28:41;24.40;99.90
20845;DHT22;10583;49.084;8.646;2023-07-24T13:31:12;24.80;99.90
20845;DHT22;10583;49.084;8.646;2023-07-24T13:33:39;24.90;99.90
20845;DHT22;10583;49.084;8.646;2023-07-24T13:36:06;25.10;99.90
20845;DHT22;10583;49.084;8.646;2023-07-24T13:38:34;25.50;99.90
20845;DHT22;10583;49.084;8.646;2023-07-24T13:41:01;26.00;99.90
20845;DHT22;10583;49.084;8.646;2023-07-24T13:43:29;26.30;99.90
20845;DHT22;10583;49.084;8.646;2023-07-24T13:45:55;26.20;99.90
20845;DHT22;10583;49.084;8.646;2023-07-24T13:48:22;25.70;99.90
20845;DHT22;10583;49.084;8.646;2023-07-24T13:50:49;25.50;99.90
20845;DHT22;10583;49.084;8.646;2023-07-24T13:53:16;25.60;99.90
20845;DHT22;10583;49.084;8.646;2023-07-24T13:55:44;25.70;99.90
20845;DHT22;10583;49.084;8.646;2023-07-24T13:58:11;25.30;99.90
20845;DHT22;10583;49.084;8.646;2023-07-24T14:00:37;25.10;99.90
20845;DHT22;10583;49.084;8.646;2023-07-24T14:03:04;25.40;99.90
20845;DHT22;10583;49.084;8.646;2023-07-24T14:05:31;25.70;99.90
20845;DHT22;10583;49.084;8.646;2023-07-24T14:07:58;25.70;99.90
20845;DHT22;10583;49.084;8.646;2023-07-24T14:10:24;25.60;99.90
20845;DHT22;10583;49.084;8.646;2023-07-24T14:12:52;25.50;99.90
20845;DHT22;10583;49.084;8.646;2023-07-24T14:15:19;25.70;99.90
20845;DHT22;10583;49.084;8.646;2023-07-24T14:17:46;25.60;99.90
20845;DHT22;10583;49.084;8.646;2023-07-24T14:20:13;25.50;99.90
20845;DHT22;10583;49.084;8.646;2023-07-24T14:22:39;25.50;99.90
20845;DHT22;10583;49.084;8.646;2023-07-24T14:25:07;25.60;99.90
20845;DHT22;10583;49.084;8.646;2023-07-24T14:27:33;25.60;99.90
20845;DHT22;10583;49.084;8.646;2023-07-24T14:30:02;25.70;99.90
20845;DHT22;10583;49.084;8.646;2023-07-24T14:32:29;25.70;99.90
20845;DHT22;10583;49.084;8.646;2023-07-24T14:34:55;25.60;99.90
20845;DHT22;10583;49.084;8.646;2023-07-24T14:37:22;25.40;99.90
20845;DHT22;10583;49.084;8.646;2023-07-24T14:39:49;25.30;99.90
20845;DHT22;10583;49.084;8.646;2023-07-24T14:42:16;25.20;99.90
20845;DHT22;10583;49.084;8.646;2023-07-24T14:44:43;25.00;99.90
20845;DHT22;10583;49.084;8.646;2023-07-24T14:47:11;24.90;99.90
20845;DHT22;10583;49.084;8.646;2023-07-24T14:49:38;25.00;99.90
20845;DHT22;10583;49.084;8.646;2023-07-24T14:52:05;24.90;99.90
20845;DHT22;10583;49.084;8.646;2023-07-24T14:54:32;24.80;99.90
20845;DHT22;10583;49.084;8.646;2023-07-24T14:56:59;24.80;99.90
20845;DHT22;10583;49.084;8.646;2023-07-24T14:59:27;24.70;99.90
20845;DHT22;10583;49.084;8.646;2023-07-24T15:01:54;24.60;99.90
20845;DHT22;10583;49.084;8.646;2023-07-24T15:04:22;24.30;99.90
20845;DHT22;10583;49.084;8.646;2023-07-24T15:06:49;24.20;99.90
20845;DHT22;10583;49.084;8.646;2023-07-24T15:09:15;24.00;99.90
20845;DHT22;10583;49.084;8.646;2023-07-24T15:11:42;23.90;99.90
20845;DHT22;10583;49.084;8.646;2023-07-24T15:14:09;23.80;99.90
20845;DHT22;10583;49.084;8.646;2023-07-24T15:16:35;23.70;99.90
20845;DHT22;10583;49.084;8.646;2023-07-24T15:19:02;23.30;99.90
20845;DHT22;10583;49.084;8.646;2023-07-24T15:21:30;22.80;99.90
20845;DHT22;10583;49.084;8.646;2023-07-24T15:23:57;22.40;99.90
20845;DHT22;10583;49.084;8.646;2023-07-24T15:26:24;22.00;99.90
20845;DHT22;10583;49.084;8.646;2023-07-24T15:28:50;21.60;99.90
20845;DHT22;10583;49.084;8.646;2023-07-24T15:31:17;21.50;99.90